• Join FlightAware (Why Join?)
  • Login
  • US Flag 
03:46AM EDT


 

Airport Tracker/Info


-or-


 

Live Flight TrackerFlight Track Log ✈ SKW6345 ✈ 10-Aug-2013 ✈ KSFO - KBZN

Flight Track Log - Related Links

Times and Time Zones

All times are in EDT time to prevent confusion due to time zone crossing. See the SKW6345 flight status page for this flight to view local times or setup timezone preferences in your user account.

Time Position Orientation Groundspeed Altitude Reporting Facility
EDT Latitude Longitude Course Direction KTS MPH feet Rate Location/Type
12:02PM 37.6333 -122.3667 38° Northeast 162 186 800  Level Northern Cal TRACON
12:03PM 37.6667 -122.3167 50° Northeast 214 246 2,700 1,800 Climbing Northern Cal TRACON
12:04PM 37.7167 -122.2500 47° Northeast 275 316 4,500 1,980 Climbing Northern Cal TRACON
12:06PM 37.8691 -122.1142 38° Northeast  Level FlightAware Approximate
12:06PM 37.8433 -122.1244 38° Northeast 281 323 8,900  Level Oakland Center
12:07PM 37.9884 -121.9949 38° Northeast  Level FlightAware Approximate
12:07PM 37.9089 -122.0633 36° Northeast 294 338 11,300  Level Oakland Center
12:08PM 37.9811 -121.9950 37° Northeast 328 377 12,300 1,320 Climbing Oakland Center
12:09PM 38.0600 -121.9206 37° Northeast 352 405 14,100 1,620 Climbing Oakland Center
12:10PM 38.1397 -121.8428 37° Northeast 362 417 15,700 1,440 Climbing Oakland Center
12:11PM 38.2206 -121.7592 39° Northeast 373 429 17,100 1,380 Climbing Oakland Center
12:12PM 38.3194 -121.6547 40° Northeast 393 452 18,600 1,320 Climbing Oakland Center
12:13PM 38.4142 -121.5839 30° Northeast 394 453 19,900 1,140 Climbing Oakland Center
12:14PM 38.4872 -121.4753 49° Northeast 406 467 21,000 1,020 Climbing Oakland Center
12:15PM 38.5558 -121.3592 53° Northeast 411 473 22,000 960 Climbing Oakland Center
12:16PM 38.6286 -121.2392 52° Northeast 424 488 23,000 960 Climbing Oakland Center
12:17PM 38.7014 -121.1147 53° Northeast 423 487 24,000 900 Climbing Oakland Center
12:18PM 38.7753 -120.9917 52° Northeast 432 497 24,900 780 Climbing Oakland Center
12:19PM 38.8442 -120.8639 55° Northeast 435 501 25,700 720 Climbing Oakland Center
12:20PM 38.9186 -120.7381 53° Northeast 441 507 26,400 720 Climbing Oakland Center
12:21PM 39.0081 -120.5825 53° Northeast 450 518 27,200 720 Climbing Oakland Center
12:22PM 39.0822 -120.4525 54° Northeast 451 519 27,900 600 Climbing Oakland Center
12:23PM 39.1589 -120.3214 53° Northeast 456 525 28,500 660 Climbing Oakland Center
12:24PM 39.2314 -120.1894 55° Northeast 452 520 29,300 720 Climbing Oakland Center
12:25PM 39.3075 -120.0519 54° Northeast 456 525 30,000 540 Climbing Oakland Center
12:26PM 39.3836 -119.9208 53° Northeast 455 524 30,500 480 Climbing Oakland Center
12:27PM 39.4586 -119.7894 53° Northeast 454 522 31,100 540 Climbing Oakland Center
12:28PM 39.5378 -119.6578 52° Northeast 458 527 31,700 540 Climbing Oakland Center
12:29PM 39.6536 -119.5839 26° Northeast 460 529 32,300 540 Climbing Oakland Center
12:30PM 39.7719 -119.5175 23° Northeast 461 531 32,900 300 Climbing Oakland Center
12:31PM 39.8925 -119.4519 23° Northeast 465 535 33,000  Climbing Oakland Center
12:32PM 40.0392 -119.3708 23° Northeast 473 544 33,000  Level Oakland Center
12:33PM 40.1625 -119.3011 23° Northeast 478 550 33,000  Level Oakland Center
12:35PM 40.2867 -119.2311 23° Northeast 483 556 33,000  Level Oakland Center
12:36PM 40.4139 -119.1581 24° Northeast 493 567 33,000  Level Oakland Center
12:37PM 40.5400 -119.0856 24° Northeast 495 570 33,000  Level Oakland Center
12:38PM 40.6667 -119.0122 24° Northeast 496 571 33,000  Level Oakland Center
12:39PM 40.7956 -118.9383 23° Northeast 501 577 33,000  Level Oakland Center
12:40PM 40.9392 -118.8550 24° Northeast 501 577 33,000  Level Oakland Center
12:41PM 41.0617 -118.7817 24° Northeast 502 578 33,000  Level Oakland Center
12:42PM 41.1619 -118.6686 40° Northeast 495 570 33,000  Level Oakland Center
12:43PM 41.2686 -118.5236 46° Northeast 490 564 33,000  Level Oakland Center
12:44PM 41.3586 -118.4011 46° Northeast 485 558 33,000  Level Oakland Center
12:45PM 41.4503 -118.2772 45° Northeast 487 560 33,000  Level Oakland Center
12:46PM 41.6000 -118.0753 45° Northeast 482 555 33,000  Level Salt Lake Center
12:47PM 41.6881 -117.9519 46° Northeast 479 551 33,000  Level Salt Lake Center
12:48PM 41.7917 -117.8086 46° Northeast 478 550 33,000  Level Salt Lake Center
12:49PM 41.8806 -117.6789 47° Northeast 491 565 33,000  Level Salt Lake Center
12:50PM 41.9822 -117.5386 46° Northeast 472 543 33,000  Level Salt Lake Center
12:51PM 42.0694 -117.4194 45° Northeast 466 536 33,000  Level Salt Lake Center
12:52PM 42.1722 -117.2703 47° Northeast 478 550 33,000  Level Salt Lake Center
12:54PM 42.2594 -117.1461 46° Northeast 476 548 33,000  Level Salt Lake Center
12:55PM 42.3575 -117.0039 47° Northeast 478 550 33,000  Level Salt Lake Center
12:56PM 42.4433 -116.8819 46° Northeast 468 539 33,000  Level Salt Lake Center
12:57PM 42.5439 -116.7356 47° Northeast 474 545 33,000  Level Salt Lake Center
12:58PM 42.6289 -116.6122 47° Northeast 469 540 33,000  Level Salt Lake Center
12:59PM 42.7272 -116.4686 47° Northeast 464 534 33,000  Level Salt Lake Center
01:00PM 42.8122 -116.3425 47° Northeast 471 542 33,000  Level Salt Lake Center
01:01PM 42.9114 -116.1981 47° Northeast 470 541 33,000  Level Salt Lake Center
01:02PM 42.9953 -116.0744 47° Northeast 465 535 33,000  Level Salt Lake Center
01:03PM 43.0936 -115.9311 47° Northeast 463 533 33,000  Level Salt Lake Center
01:04PM 43.1783 -115.8036 48° Northeast 471 542 33,000  Level Salt Lake Center
01:05PM 43.2603 -115.6789 48° Northeast 463 533 33,000  Level Salt Lake Center
01:06PM 43.3561 -115.5322 48° Northeast 463 533 33,000  Level Salt Lake Center
01:07PM 43.4378 -115.4053 48° Northeast 464 534 33,000  Level Salt Lake Center
01:08PM 43.5342 -115.2603 47° Northeast 461 531 33,000  Level Salt Lake Center
01:09PM 43.6158 -115.1342 48° Northeast 462 532 33,000  Level Salt Lake Center
01:10PM 43.7106 -114.9892 48° Northeast 458 527 33,000  Level Salt Lake Center
01:11PM 43.7908 -114.8628 49° Northeast 457 526 33,000  Level Salt Lake Center
01:12PM 43.8858 -114.7181 48° Northeast 456 525 33,000  Level Salt Lake Center
01:13PM 43.9672 -114.5922 48° Northeast 459 528 33,000  Level Salt Lake Center
01:14PM 44.0597 -114.4469 48° Northeast 452 520 33,000  Level Salt Lake Center
01:15PM 44.1411 -114.3206 48° Northeast 457 526 33,000  Level Salt Lake Center
01:16PM 44.2339 -114.1739 49° Northeast 456 525 33,000  Level Salt Lake Center
01:17PM 44.3156 -114.0461 48° Northeast 460 529 33,000  Level Salt Lake Center
01:18PM 44.4097 -113.8994 48° Northeast 459 528 33,000  Level Salt Lake Center
01:19PM 44.4900 -113.7711 49° Northeast 459 528 33,000  Level Salt Lake Center
01:20PM 44.5853 -113.6208 48° Northeast 461 531 33,000  Level Salt Lake Center
01:21PM 44.6661 -113.4922 49° Northeast 461 531 33,000  Level Salt Lake Center
01:22PM 44.7603 -113.3394 49° Northeast 461 531 33,000  Level Salt Lake Center
01:24PM 44.8414 -113.2092 49° Northeast 462 532 33,000  Level Salt Lake Center
01:25PM 44.9356 -113.0567 49° Northeast 462 532 33,000  Level Salt Lake Center
01:26PM 45.0169 -112.9264 49° Northeast 462 532 33,000  Level Salt Lake Center
01:27PM 45.0961 -112.7956 49° Northeast 459 528 33,000  Level Salt Lake Center
01:28PM 45.1922 -112.6406 49° Northeast 463 533 33,000 -1,020 Level Salt Lake Center
01:29PM 45.2661 -112.4983 54° Northeast 470 541 30,900 -2,700 Descending Salt Lake Center
01:30PM 45.3417 -112.3092 60° Northeast 491 565 27,500 -3,000 Descending Salt Lake Center
01:31PM 45.4025 -112.1547 61° Northeast 478 550 24,700 -2,880 Descending Salt Lake Center
01:32PM 45.4622 -111.9967 62° Northeast 456 525 21,600 -3,300 Descending Salt Lake Center
01:33PM 45.5206 -111.8469 61° Northeast 438 504 18,000 -3,840 Descending Salt Lake Center
01:34PM 45.5867 -111.6739 61° Northeast 418 481 13,700 -2,460 Descending Salt Lake Center
01:35PM 45.6353 -111.5464 61° Northeast 370 426 13,000 -720 Descending Salt Lake Center
01:36PM 45.6564 -111.4322 75° East 319 367 12,300 -1,020 Descending Salt Lake Center
01:37PM 45.6719 -111.3344 77° East 272 313 11,000 -1,380 Descending Salt Lake Center
01:38PM 45.6822 -111.2442 81° East 250 288 9,500 -1,560 Descending Salt Lake Center
01:39PM 45.6919 -111.1381 82° East 235 270 7,800 -1,680 Descending Salt Lake Center
01:40PM 45.7275 -111.0986 38° Northeast 191 220 6,000 -1,500 Descending Salt Lake Center
01:41PM 45.7614 -111.1300 327° Northwest 166 191 4,800 -1,200 Descending Salt Lake Center